Time;durP1;ratioP1;P1;durP2;ratioP2;P2;SDS_P1;SDS_P2;PMS_P1;PMS_P2;Temp;Humidity;BMP_temperature;BMP_pressure;BME280_temperature;BME280_humidity;BME280_pressure;Samples;Min_cycle;Max_cycle;Signal;HPM_P1;HPM_P2
2022/07/27 00:00:30;;;;;;;1.15;0.85;;;16.00;99.90;;;;;;5038436;28;20051;-77
2022/07/27 00:02:56;;;;;;;1.15;1.02;;;16.00;99.90;;;;;;5038822;28;20041;-78
2022/07/27 00:05:22;;;;;;;2.45;1.10;;;16.00;99.90;;;;;;5039088;28;20041;-77
2022/07/27 00:07:48;;;;;;;4.90;1.13;;;15.90;99.90;;;;;;5039012;28;20143;-77
2022/07/27 00:10:14;;;;;;;1.90;0.93;;;15.90;99.90;;;;;;5038928;28;20071;-78
2022/07/27 00:12:40;;;;;;;1.45;1.35;;;15.90;99.90;;;;;;5052459;28;20498;-77
2022/07/27 00:15:06;;;;;;;1.08;0.70;;;15.90;99.90;;;;;;5082880;28;20040;-77
2022/07/27 00:17:32;;;;;;;2.28;0.77;;;15.90;99.90;;;;;;5082062;28;20543;-78
2022/07/27 00:19:57;;;;;;;0.73;0.73;;;15.80;99.90;;;;;;5083257;28;20051;-77
2022/07/27 00:22:23;;;;;;;4.25;1.10;;;15.80;99.90;;;;;;5082817;28;20044;-78
2022/07/27 00:24:49;;;;;;;4.03;1.40;;;15.80;99.90;;;;;;5082485;28;20048;-78
2022/07/27 00:27:15;;;;;;;3.75;1.13;;;15.80;99.90;;;;;;5065237;28;20437;-77
2022/07/27 00:29:41;;;;;;;1.88;1.00;;;15.80;99.90;;;;;;5065335;28;20058;-77
2022/07/27 00:32:07;;;;;;;1.05;1.05;;;15.70;99.90;;;;;;5082022;28;20044;-77
2022/07/27 00:34:33;;;;;;;0.50;0.50;;;15.70;99.90;;;;;;5082442;28;20504;-77
2022/07/27 00:36:59;;;;;;;2.40;1.27;;;15.70;99.90;;;;;;5082719;28;20127;-77
2022/07/27 00:39:25;;;;;;;1.90;0.98;;;15.70;99.90;;;;;;5083411;28;20111;-77
2022/07/27 00:41:50;;;;;;;0.70;0.55;;;15.60;99.90;;;;;;5081764;28;20044;-77
2022/07/27 00:44:25;;;;;;;0.93;0.80;;;15.60;99.90;;;;;;5082573;28;20055;-78
2022/07/27 00:46:51;;;;;;;0.88;0.82;;;15.60;99.90;;;;;;5080834;28;20082;-78
2022/07/27 00:49:17;;;;;;;0.60;0.45;;;15.60;99.90;;;;;;5082496;28;20068;-78
2022/07/27 00:51:43;;;;;;;3.03;1.33;;;15.60;99.90;;;;;;5083061;28;20036;-77
2022/07/27 00:54:09;;;;;;;1.90;1.20;;;15.50;99.90;;;;;;5082459;28;20054;-77
2022/07/27 00:56:35;;;;;;;3.10;1.05;;;15.50;99.90;;;;;;5081984;28;20048;-77
2022/07/27 00:59:01;;;;;;;0.85;0.85;;;15.50;99.90;;;;;;5082425;28;20109;-77
2022/07/27 01:01:26;;;;;;;0.60;0.60;;;15.40;99.90;;;;;;5081191;28;20040;-77
2022/07/27 01:03:52;;;;;;;1.40;0.80;;;15.40;99.90;;;;;;5073708;22;20485;-77
2022/07/27 01:06:18;;;;;;;0.50;0.50;;;15.40;99.90;;;;;;5037210;28;20061;-78
2022/07/27 01:08:44;;;;;;;4.13;1.15;;;15.40;99.90;;;;;;5040439;28;20049;-78
2022/07/27 01:11:10;;;;;;;0.80;0.52;;;15.30;99.90;;;;;;5041645;28;20300;-77
2022/07/27 01:13:37;;;;;;;1.52;0.50;;;15.30;99.90;;;;;;5054644;28;20045;-77
2022/07/27 01:16:06;;;;;;;1.65;1.00;;;15.30;99.90;;;;;;5058413;28;20123;-78
2022/07/27 01:18:37;;;;;;;0.90;0.60;;;15.20;99.90;;;;;;5059731;28;20036;-77
2022/07/27 01:21:06;;;;;;;1.55;1.05;;;15.20;99.90;;;;;;5060481;28;20044;-77
2022/07/27 01:23:32;;;;;;;0.50;0.50;;;15.20;99.90;;;;;;5059430;28;20063;-77
2022/07/27 01:26:00;;;;;;;1.08;0.90;;;15.20;99.90;;;;;;5059274;28;20529;-77
2022/07/27 01:28:26;;;;;;;0.80;0.65;;;15.20;99.90;;;;;;5059603;28;20060;-77
2022/07/27 01:30:52;;;;;;;2.20;0.68;;;15.20;99.90;;;;;;5059000;28;20041;-77
2022/07/27 01:33:24;;;;;;;1.02;0.93;;;15.20;99.90;;;;;;5059575;28;20069;-78
2022/07/27 01:35:51;;;;;;;0.50;0.50;;;15.10;99.90;;;;;;5059892;28;20041;-77
2022/07/27 01:38:17;;;;;;;5.47;0.93;;;15.10;99.90;;;;;;5059639;28;20045;-78
2022/07/27 01:40:42;;;;;;;3.88;1.08;;;15.10;99.90;;;;;;5059660;28;20051;-77
2022/07/27 01:43:08;;;;;;;12.55;1.25;;;15.10;99.90;;;;;;5058405;28;20049;-77
2022/07/27 01:45:33;;;;;;;0.65;0.65;;;15.10;99.90;;;;;;5059617;28;20098;-77
2022/07/27 01:47:59;;;;;;;0.38;0.38;;;15.10;99.90;;;;;;5060249;28;20722;-77
2022/07/27 01:50:25;;;;;;;0.98;0.90;;;15.10;99.90;;;;;;5060101;28;20049;-77
2022/07/27 01:52:50;;;;;;;1.15;0.98;;;15.00;99.90;;;;;;5059588;28;20036;-77
2022/07/27 01:55:16;;;;;;;4.13;1.23;;;15.00;99.90;;;;;;5060611;28;20966;-78
2022/07/27 01:57:41;;;;;;;3.47;1.08;;;15.00;99.90;;;;;;5060944;28;20083;-77
2022/07/27 02:00:10;;;;;;;1.20;0.82;;;15.00;99.90;;;;;;5058585;28;20048;-77
2022/07/27 02:02:36;;;;;;;1.02;0.77;;;15.00;99.90;;;;;;5058797;28;20071;-77
2022/07/27 02:05:02;;;;;;;0.40;0.40;;;14.90;99.90;;;;;;5022337;28;1042245;-77
2022/07/27 02:07:27;;;;;;;2.08;1.00;;;14.90;99.90;;;;;;5060985;28;20441;-77
2022/07/27 02:09:53;;;;;;;3.67;0.88;;;14.90;99.90;;;;;;5060580;28;20174;-77
2022/07/27 02:12:37;;;;;;;0.68;0.68;;;14.90;99.90;;;;;;5057791;28;20041;-77
2022/07/27 02:15:11;;;;;;;0.63;0.60;;;15.00;99.90;;;;;;5040099;28;20053;-77
2022/07/27 02:17:37;;;;;;;1.80;1.05;;;14.90;99.90;;;;;;5039544;28;20485;-77
2022/07/27 02:20:04;;;;;;;0.77;0.77;;;14.90;99.90;;;;;;5040468;28;20045;-78
2022/07/27 02:22:30;;;;;;;1.95;1.02;;;15.00;99.90;;;;;;5040622;28;20045;-77
2022/07/27 02:24:55;;;;;;;0.65;0.52;;;15.00;99.90;;;;;;5038431;28;20037;-77
2022/07/27 02:27:21;;;;;;;1.73;0.90;;;15.00;99.90;;;;;;5040648;28;20169;-77
2022/07/27 02:29:47;;;;;;;0.68;0.63;;;15.10;99.90;;;;;;5040361;28;20446;-77
2022/07/27 02:32:12;;;;;;;0.80;0.80;;;15.00;99.90;;;;;;5039751;28;20072;-77
2022/07/27 02:34:38;;;;;;;1.92;0.55;;;15.10;99.90;;;;;;5040160;28;20201;-77
2022/07/27 02:37:03;;;;;;;0.98;0.47;;;15.10;99.90;;;;;;5039315;28;20548;-77
2022/07/27 02:39:29;;;;;;;0.60;0.60;;;15.10;99.90;;;;;;5040611;28;20060;-78
2022/07/27 02:41:54;;;;;;;0.80;0.80;;;15.10;99.90;;;;;;5038295;28;20053;-78
2022/07/27 02:44:20;;;;;;;6.40;0.95;;;15.10;99.90;;;;;;5040240;28;20758;-77
2022/07/27 02:46:46;;;;;;;1.05;0.80;;;15.10;99.90;;;;;;5037958;28;20041;-77
2022/07/27 02:49:11;;;;;;;1.10;1.10;;;15.10;99.90;;;;;;5040376;28;20041;-77
2022/07/27 02:51:37;;;;;;;1.13;0.82;;;15.10;99.90;;;;;;5038683;28;20045;-77
2022/07/27 02:54:03;;;;;;;2.20;1.42;;;15.10;99.90;;;;;;5040129;28;20319;-76
2022/07/27 02:56:28;;;;;;;0.80;0.50;;;15.10;99.90;;;;;;5039968;28;20051;-77
2022/07/27 02:58:54;;;;;;;0.32;0.32;;;15.10;99.90;;;;;;5039359;28;20040;-77
2022/07/27 03:01:20;;;;;;;0.52;0.52;;;15.10;99.90;;;;;;5039367;28;20037;-77
2022/07/27 03:03:46;;;;;;;0.77;0.52;;;15.10;99.90;;;;;;5038156;28;20041;-78
2022/07/27 03:06:12;;;;;;;0.95;0.43;;;15.10;99.90;;;;;;5040321;28;20136;-77
2022/07/27 03:08:39;;;;;;;0.32;0.32;;;15.10;99.90;;;;;;5038464;28;20049;-77
2022/07/27 03:11:04;;;;;;;4.30;1.05;;;15.10;99.90;;;;;;5039434;28;20037;-77
2022/07/27 03:13:30;;;;;;;0.57;0.57;;;15.10;99.90;;;;;;5052644;28;20043;-74
2022/07/27 03:15:57;;;;;;;0.40;0.40;;;15.10;99.90;;;;;;5059234;28;20119;-77
2022/07/27 03:18:22;;;;;;;0.70;0.60;;;15.10;99.90;;;;;;5059369;28;20037;-77
2022/07/27 03:20:48;;;;;;;1.35;1.13;;;15.10;99.90;;;;;;5058088;28;20044;-77
2022/07/27 03:23:14;;;;;;;1.58;0.52;;;15.10;99.90;;;;;;5059994;28;20161;-78
2022/07/27 03:25:39;;;;;;;1.33;0.75;;;15.10;99.90;;;;;;5059851;28;20048;-78
2022/07/27 03:28:05;;;;;;;2.13;1.25;;;15.10;99.90;;;;;;5059250;28;20094;-77
2022/07/27 03:30:31;;;;;;;1.00;0.82;;;15.10;99.90;;;;;;5058664;28;20090;-77
2022/07/27 03:32:57;;;;;;;1.70;0.70;;;15.10;99.90;;;;;;5059206;28;20541;-77
2022/07/27 03:35:22;;;;;;;2.35;1.40;;;15.10;99.90;;;;;;5059580;28;20098;-77
2022/07/27 03:37:48;;;;;;;3.63;0.93;;;15.10;99.90;;;;;;5058028;28;20040;-78
2022/07/27 03:40:14;;;;;;;0.95;0.65;;;15.10;99.90;;;;;;5058085;28;20071;-77
2022/07/27 03:42:39;;;;;;;3.58;1.40;;;15.10;99.90;;;;;;5060240;28;20411;-76
2022/07/27 03:45:05;;;;;;;5.15;1.88;;;15.00;99.90;;;;;;5057794;28;20132;-79
2022/07/27 03:47:31;;;;;;;2.60;1.27;;;15.00;99.90;;;;;;5060918;28;20040;-79
2022/07/27 03:49:57;;;;;;;2.33;1.25;;;14.90;99.90;;;;;;5063727;28;20074;-79
2022/07/27 03:52:22;;;;;;;2.40;0.98;;;14.90;99.90;;;;;;5063825;28;20076;-79
2022/07/27 03:54:48;;;;;;;0.68;0.65;;;14.90;99.90;;;;;;5061160;28;20297;-80
2022/07/27 03:57:14;;;;;;;0.70;0.60;;;14.90;99.90;;;;;;5064015;28;20095;-79
2022/07/27 03:59:39;;;;;;;1.02;0.82;;;14.90;99.90;;;;;;5063705;28;20098;-79
2022/07/27 04:02:05;;;;;;;3.08;1.42;;;14.90;99.90;;;;;;5061982;28;20041;-80
2022/07/27 04:04:31;;;;;;;2.22;0.75;;;14.90;99.90;;;;;;5062731;28;20053;-79
2022/07/27 04:06:56;;;;;;;3.55;1.10;;;14.90;99.90;;;;;;5061356;28;20091;-79
2022/07/27 04:09:23;;;;;;;4.78;1.08;;;14.90;99.90;;;;;;5063058;28;20044;-79
2022/07/27 04:11:49;;;;;;;1.15;1.08;;;14.90;99.90;;;;;;5062595;28;20051;-79
2022/07/27 04:14:15;;;;;;;4.70;1.60;;;14.90;99.90;;;;;;5043622;28;20037;-79
2022/07/27 04:16:41;;;;;;;2.22;0.70;;;14.90;99.90;;;;;;5042269;28;20059;-79
2022/07/27 04:19:06;;;;;;;2.80;1.23;;;14.80;99.90;;;;;;5043194;28;20530;-80
2022/07/27 04:21:34;;;;;;;1.60;1.42;;;14.80;99.90;;;;;;5042744;28;20094;-79
2022/07/27 04:24:00;;;;;;;0.82;0.82;;;14.80;99.90;;;;;;5041943;28;20056;-79
2022/07/27 04:26:26;;;;;;;1.33;0.73;;;14.80;99.90;;;;;;5042749;28;20064;-79
2022/07/27 04:28:52;;;;;;;1.58;1.25;;;14.80;99.90;;;;;;5042356;28;20037;-79
2022/07/27 04:31:17;;;;;;;3.15;1.08;;;14.80;99.90;;;;;;5041339;28;20101;-80
2022/07/27 04:33:43;;;;;;;8.73;1.40;;;14.80;99.90;;;;;;5042662;28;20530;-79
2022/07/27 04:36:08;;;;;;;7.63;1.83;;;14.80;99.90;;;;;;5041763;28;20083;-79
2022/07/27 04:38:34;;;;;;;2.20;1.40;;;14.80;99.90;;;;;;5042589;28;20171;-80
2022/07/27 04:41:00;;;;;;;2.20;1.27;;;14.90;99.90;;;;;;5042137;28;20044;-80
2022/07/27 04:43:25;;;;;;;1.10;1.00;;;14.90;99.90;;;;;;5042133;28;20560;-79
2022/07/27 04:45:51;;;;;;;3.67;1.38;;;14.90;99.90;;;;;;5041066;28;20033;-79
2022/07/27 04:48:17;;;;;;;2.53;1.85;;;14.90;99.90;;;;;;5042785;28;20677;-79
2022/07/27 04:50:44;;;;;;;1.67;0.77;;;15.00;99.90;;;;;;5042429;28;20051;-80
2022/07/27 04:53:11;;;;;;;2.40;1.20;;;15.00;99.90;;;;;;5040805;28;20041;-80
2022/07/27 04:55:41;;;;;;;1.48;0.70;;;15.00;99.90;;;;;;5042415;28;20064;-80
2022/07/27 04:58:06;;;;;;;1.33;1.20;;;15.00;99.90;;;;;;5041599;28;20068;-79
2022/07/27 05:00:32;;;;;;;4.35;1.20;;;15.00;99.90;;;;;;5039634;28;20490;-80
2022/07/27 05:02:57;;;;;;;1.10;1.00;;;15.00;99.90;;;;;;5040223;28;20053;-80
2022/07/27 05:05:23;;;;;;;1.00;1.00;;;14.90;99.90;;;;;;5040563;28;20057;-80
2022/07/27 05:07:49;;;;;;;1.45;0.93;;;14.90;99.90;;;;;;5040238;28;20423;-80
2022/07/27 05:10:14;;;;;;;1.60;1.17;;;14.90;99.90;;;;;;5041998;28;20095;-80
2022/07/27 05:12:40;;;;;;;1.20;0.50;;;14.90;99.90;;;;;;5047652;28;20033;-80
2022/07/27 05:15:06;;;;;;;1.25;1.15;;;14.80;99.90;;;;;;5059327;28;20542;-80
2022/07/27 05:17:33;;;;;;;1.77;1.27;;;14.80;99.90;;;;;;5061929;28;20044;-80
2022/07/27 05:19:59;;;;;;;0.75;0.75;;;14.80;99.90;;;;;;5060390;28;20088;-80
2022/07/27 05:22:24;;;;;;;1.67;1.20;;;14.80;99.90;;;;;;5059705;28;20052;-80
2022/07/27 05:24:50;;;;;;;0.80;0.80;;;14.80;99.90;;;;;;5061463;28;20043;-79
2022/07/27 05:27:16;;;;;;;1.30;0.90;;;14.80;99.90;;;;;;5060385;28;20084;-80
2022/07/27 05:29:41;;;;;;;8.82;1.60;;;14.80;99.90;;;;;;5060986;28;20082;-79
2022/07/27 05:32:07;;;;;;;2.95;1.45;;;14.80;99.90;;;;;;5059487;28;20090;-79
2022/07/27 05:34:32;;;;;;;1.00;1.00;;;14.80;99.90;;;;;;5061731;28;20565;-79
2022/07/27 05:36:58;;;;;;;4.13;1.38;;;14.80;99.90;;;;;;5061154;28;20032;-80
2022/07/27 05:39:24;;;;;;;0.82;0.82;;;14.80;99.90;;;;;;5060766;28;20036;-80
2022/07/27 05:41:49;;;;;;;1.38;0.90;;;14.80;99.90;;;;;;5060825;28;20063;-80
2022/07/27 05:44:15;;;;;;;0.80;0.80;;;14.80;99.90;;;;;;5061489;28;20096;-79
2022/07/27 05:46:40;;;;;;;1.77;1.00;;;14.80;99.90;;;;;;5060173;28;20047;-79
2022/07/27 05:49:06;;;;;;;2.00;1.27;;;14.80;99.90;;;;;;5060680;28;20213;-79
2022/07/27 05:51:31;;;;;;;2.70;0.70;;;14.80;99.90;;;;;;5035839;28;20148;-80
2022/07/27 05:53:58;;;;;;;2.05;1.92;;;14.90;99.90;;;;;;5046083;28;20048;-79
2022/07/27 05:56:24;;;;;;;1.45;0.88;;;14.90;99.90;;;;;;5039652;28;20094;-79
2022/07/27 05:58:49;;;;;;;1.00;0.70;;;14.90;99.90;;;;;;5041020;28;20036;-79
2022/07/27 06:01:15;;;;;;;1.30;0.80;;;14.90;99.90;;;;;;5038797;28;20519;-79
2022/07/27 06:03:41;;;;;;;1.15;1.00;;;14.90;99.90;;;;;;5039827;28;20040;-80
2022/07/27 06:08:51;;;;;;;4.50;0.75;;;14.90;99.90;;;;;;5039290;28;20056;-80
2022/07/27 06:11:16;;;;;;;1.48;0.90;;;14.90;99.90;;;;;;5040006;28;20483;-80
2022/07/27 06:13:42;;;;;;;6.43;1.05;;;14.90;99.90;;;;;;5036901;28;20115;-80
2022/07/27 06:16:08;;;;;;;1.30;0.95;;;15.00;99.90;;;;;;5059679;28;20037;-79
2022/07/27 06:18:34;;;;;;;4.03;0.80;;;15.00;99.90;;;;;;5059304;28;20048;-79
2022/07/27 06:21:01;;;;;;;0.65;0.65;;;15.00;99.90;;;;;;5059538;28;20130;-77
2022/07/27 06:23:28;;;;;;;1.05;0.82;;;15.00;99.90;;;;;;5060092;28;20049;-80
2022/07/27 06:25:54;;;;;;;1.15;1.05;;;15.00;99.90;;;;;;5056135;28;20032;-80
2022/07/27 06:28:19;;;;;;;1.95;1.00;;;15.10;99.90;;;;;;5060000;28;20512;-79
2022/07/27 06:30:46;;;;;;;1.70;1.15;;;15.10;99.90;;;;;;5057832;28;20122;-77
2022/07/27 06:33:12;;;;;;;1.20;0.73;;;15.10;99.90;;;;;;5058243;28;20045;-80
2022/07/27 06:35:38;;;;;;;0.82;0.82;;;15.10;99.90;;;;;;5059799;28;20354;-80
2022/07/27 06:38:04;;;;;;;0.85;0.60;;;15.20;99.90;;;;;;5058930;28;20407;-82
2022/07/27 06:40:31;;;;;;;2.35;0.95;;;15.20;99.90;;;;;;5057707;28;20049;-82
2022/07/27 06:42:57;;;;;;;0.50;0.40;;;15.20;99.90;;;;;;5058306;28;20036;-81
2022/07/27 06:45:23;;;;;;;1.63;1.17;;;15.20;99.90;;;;;;5058229;28;20115;-79
2022/07/27 06:47:50;;;;;;;1.25;1.05;;;15.30;99.90;;;;;;5059665;28;20120;-79
2022/07/27 06:50:16;;;;;;;3.00;1.27;;;15.30;99.90;;;;;;5059114;28;20048;-79
2022/07/27 06:52:42;;;;;;;1.25;0.95;;;15.40;99.90;;;;;;5059114;28;20111;-81
2022/07/27 06:55:08;;;;;;;0.65;0.65;;;15.40;99.90;;;;;;5059525;28;20144;-79
2022/07/27 06:57:34;;;;;;;2.17;1.05;;;15.50;99.90;;;;;;5058057;28;20516;-81
2022/07/27 07:00:00;;;;;;;0.55;0.52;;;15.60;99.90;;;;;;5056661;28;20138;-80
2022/07/27 07:02:26;;;;;;;2.92;0.73;;;15.60;99.90;;;;;;5058829;28;20071;-80
2022/07/27 07:04:52;;;;;;;1.08;0.90;;;15.70;99.90;;;;;;5058199;28;20052;-78
2022/07/27 07:07:18;;;;;;;1.00;0.50;;;15.70;99.90;;;;;;5059167;28;20457;-81
2022/07/27 07:09:44;;;;;;;2.50;0.80;;;15.70;99.90;;;;;;5040402;28;20135;-80
2022/07/27 07:12:09;;;;;;;1.48;0.50;;;15.70;99.90;;;;;;5056217;28;20147;-80
2022/07/27 07:14:35;;;;;;;1.63;0.77;;;15.70;99.90;;;;;;5036775;28;20045;-80
2022/07/27 07:17:01;;;;;;;1.73;1.15;;;15.80;99.90;;;;;;5039566;28;20033;-80
2022/07/27 07:19:27;;;;;;;1.70;0.50;;;15.80;99.90;;;;;;5038141;28;20044;-82
2022/07/27 07:21:52;;;;;;;2.08;0.75;;;15.80;99.90;;;;;;5036813;28;20447;-81
2022/07/27 07:24:18;;;;;;;0.40;0.40;;;15.80;99.90;;;;;;5038829;28;20099;-80
2022/07/27 07:26:44;;;;;;;5.57;1.00;;;15.80;99.90;;;;;;5037017;28;20537;-80
2022/07/27 07:29:10;;;;;;;1.05;0.63;;;15.80;99.90;;;;;;5038758;28;20045;-79
2022/07/27 07:31:36;;;;;;;0.75;0.75;;;15.80;99.90;;;;;;5039642;28;20487;-79
2022/07/27 07:34:03;;;;;;;0.98;0.82;;;15.80;99.90;;;;;;5037359;28;20043;-84
2022/07/27 07:36:28;;;;;;;1.83;1.08;;;15.80;99.90;;;;;;5039592;28;20052;-83
2022/07/27 07:38:54;;;;;;;3.30;0.88;;;15.90;99.90;;;;;;5038985;28;20041;-83
2022/07/27 07:41:24;;;;;;;1.83;1.15;;;15.90;99.90;;;;;;5039424;28;20719;-84
2022/07/27 07:43:49;;;;;;;1.00;1.00;;;16.00;99.90;;;;;;5037798;28;20534;-81
2022/07/27 07:46:15;;;;;;;0.88;0.70;;;16.10;99.90;;;;;;5037265;28;20132;-82
2022/07/27 07:48:42;;;;;;;1.00;0.88;;;16.10;99.90;;;;;;5039180;28;20132;-84
2022/07/27 07:51:08;;;;;;;0.90;0.90;;;16.10;99.90;;;;;;5037479;28;20045;-83
2022/07/27 07:53:34;;;;;;;1.80;0.90;;;16.10;99.90;;;;;;5039535;28;20041;-83
2022/07/27 07:55:59;;;;;;;0.63;0.63;;;16.00;99.90;;;;;;5038762;28;20040;-83
2022/07/27 07:58:26;;;;;;;0.85;0.43;;;16.00;99.90;;;;;;5039250;28;20103;-81
2022/07/27 08:00:51;;;;;;;0.70;0.65;;;16.00;99.90;;;;;;5038373;28;20110;-82
2022/07/27 08:03:17;;;;;;;0.70;0.57;;;16.00;99.90;;;;;;5039351;28;20029;-80
2022/07/27 08:05:43;;;;;;;0.63;0.63;;;16.10;99.90;;;;;;5038924;28;20095;-83
2022/07/27 08:08:09;;;;;;;0.50;0.50;;;16.10;99.90;;;;;;5035677;28;20063;-80
2022/07/27 08:10:35;;;;;;;1.27;0.88;;;16.10;99.90;;;;;;5037862;28;20439;-82
2022/07/27 08:13:01;;;;;;;0.65;0.65;;;16.10;99.90;;;;;;5044886;28;20043;-82
2022/07/27 08:15:27;;;;;;;5.30;1.30;;;16.10;99.90;;;;;;5058304;28;20037;-81
2022/07/27 08:17:52;;;;;;;1.17;0.80;;;16.10;99.90;;;;;;5059049;28;20048;-79
2022/07/27 08:20:18;;;;;;;1.58;1.17;;;16.20;99.90;;;;;;5058244;28;20486;-82
2022/07/27 08:22:44;;;;;;;0.88;0.75;;;16.20;99.90;;;;;;5051789;28;20029;-79
2022/07/27 08:25:10;;;;;;;1.88;0.90;;;16.20;99.90;;;;;;5037996;28;20049;-80
2022/07/27 08:27:36;;;;;;;2.55;0.80;;;16.20;99.90;;;;;;5038541;28;20037;-77
2022/07/27 08:30:04;;;;;;;2.50;1.65;;;16.20;99.90;;;;;;5037495;28;20044;-79
2022/07/27 08:32:30;;;;;;;5.30;1.92;;;16.20;99.90;;;;;;5039061;28;20299;-80
2022/07/27 08:34:55;;;;;;;3.83;0.98;;;16.20;99.90;;;;;;5042158;28;20056;-83
2022/07/27 08:37:21;;;;;;;0.77;0.77;;;16.20;99.90;;;;;;5041731;28;20132;-82
2022/07/27 08:39:47;;;;;;;0.60;0.60;;;16.20;99.90;;;;;;5041985;28;20045;-83
2022/07/27 08:42:13;;;;;;;1.80;1.45;;;16.30;99.90;;;;;;5040930;28;20123;-79
2022/07/27 08:44:40;;;;;;;3.53;0.88;;;16.30;99.90;;;;;;5038836;28;20060;-81
2022/07/27 08:47:08;;;;;;;0.80;0.63;;;16.30;99.90;;;;;;5023349;28;20045;-80
2022/07/27 08:49:33;;;;;;;0.80;0.77;;;16.30;99.90;;;;;;5040582;28;20299;-79
2022/07/27 08:52:00;;;;;;;1.58;1.00;;;16.30;99.90;;;;;;5042037;28;20171;-86
2022/07/27 08:54:27;;;;;;;1.13;1.00;;;16.40;99.90;;;;;;5024249;28;20132;-82
2022/07/27 08:56:52;;;;;;;0.73;0.73;;;16.40;99.90;;;;;;5041125;28;20502;-82
2022/07/27 08:59:18;;;;;;;1.20;0.60;;;16.40;99.90;;;;;;5040784;28;20052;-80
2022/07/27 09:01:44;;;;;;;0.52;0.47;;;16.40;99.90;;;;;;5042140;28;20048;-82
2022/07/27 09:04:09;;;;;;;1.33;0.90;;;16.50;99.90;;;;;;5040769;28;20048;-77
2022/07/27 09:06:47;;;;;;;1.65;0.73;;;16.50;99.90;;;;;;5043749;28;20052;-77
2022/07/27 09:09:15;;;;;;;2.95;1.60;;;16.50;99.90;;;;;;5043588;28;20124;-79
2022/07/27 09:11:41;;;;;;;0.98;0.90;;;16.50;99.90;;;;;;5019977;28;20487;-80
2022/07/27 09:14:09;;;;;;;0.63;0.55;;;16.60;99.90;;;;;;5002617;28;20124;-81
2022/07/27 09:16:35;;;;;;;3.85;1.00;;;16.60;99.90;;;;;;5003582;28;20075;-81
2022/07/27 09:19:07;;;;;;;3.50;0.65;;;16.60;99.90;;;;;;5021277;28;20071;-81
2022/07/27 09:21:35;;;;;;;1.45;0.65;;;16.70;99.90;;;;;;5004044;28;20457;-80
2022/07/27 09:24:12;;;;;;;1.13;0.88;;;16.80;99.90;;;;;;5002956;28;20069;-78
2022/07/27 09:26:39;;;;;;;0.82;0.50;;;16.80;99.90;;;;;;5021986;28;20147;-81
2022/07/27 09:29:10;;;;;;;0.95;0.60;;;16.90;99.90;;;;;;5019982;28;20512;-79
2022/07/27 09:31:40;;;;;;;1.23;0.98;;;16.90;99.90;;;;;;5021187;28;20068;-82
2022/07/27 09:34:06;;;;;;;0.65;0.65;;;16.90;99.90;;;;;;5003427;28;20053;-79
2022/07/27 09:36:33;;;;;;;1.35;0.65;;;16.90;99.90;;;;;;5021132;28;20045;-79
2022/07/27 09:39:06;;;;;;;0.93;0.90;;;16.90;99.90;;;;;;5021356;28;20052;-80
2022/07/27 09:41:42;;;;;;;0.70;0.50;;;16.90;99.90;;;;;;5021392;28;20045;-80
2022/07/27 09:44:08;;;;;;;0.77;0.70;;;16.80;99.90;;;;;;5019981;28;20049;-80
2022/07/27 09:46:39;;;;;;;1.95;1.02;;;16.90;99.90;;;;;;4986841;28;20549;-81
2022/07/27 09:49:24;;;;;;;1.88;0.90;;;16.90;99.90;;;;;;5020821;28;20041;-81
2022/07/27 09:51:49;;;;;;;0.63;0.63;;;16.90;99.90;;;;;;5002432;28;20052;-81
2022/07/27 09:54:15;;;;;;;1.42;0.82;;;17.00;99.90;;;;;;5003034;28;20037;-82
2022/07/27 09:56:41;;;;;;;0.70;0.70;;;17.00;99.90;;;;;;5021870;28;20049;-80
2022/07/27 09:59:07;;;;;;;0.70;0.68;;;17.00;99.90;;;;;;5002277;28;20111;-81
2022/07/27 10:01:36;;;;;;;3.80;0.80;;;16.90;99.90;;;;;;5020388;28;20041;-81
2022/07/27 10:04:05;;;;;;;0.68;0.68;;;16.90;99.90;;;;;;5002839;28;20041;-81
2022/07/27 10:06:31;;;;;;;0.50;0.50;;;16.90;99.90;;;;;;4983636;28;20729;-82
2022/07/27 10:08:58;;;;;;;0.73;0.60;;;16.90;99.90;;;;;;4966947;28;20053;-83
2022/07/27 10:11:25;;;;;;;1.40;0.88;;;16.90;99.90;;;;;;5000195;28;20041;-81
2022/07/27 10:13:52;;;;;;;1.70;0.68;;;16.90;99.90;;;;;;5013072;28;20151;-83
2022/07/27 10:16:21;;;;;;;0.88;0.70;;;16.90;99.90;;;;;;5019050;28;20037;-80
2022/07/27 10:19:04;;;;;;;0.65;0.52;;;16.90;99.90;;;;;;5020316;28;20041;-80
2022/07/27 10:21:33;;;;;;;0.30;0.30;;;16.90;99.90;;;;;;5019912;28;20051;-80
2022/07/27 10:24:07;;;;;;;1.55;0.80;;;17.00;99.90;;;;;;5019381;28;20049;-74
2022/07/27 10:26:41;;;;;;;0.45;0.45;;;17.00;99.90;;;;;;5002035;28;20041;-74
2022/07/27 10:29:13;;;;;;;1.00;0.43;;;17.10;99.90;;;;;;5011003;28;20482;-76
2022/07/27 10:32:00;;;;;;;1.40;1.08;;;17.20;99.90;;;;;;4987642;28;20057;-76
2022/07/27 10:34:33;;;;;;;1.00;0.70;;;17.20;99.90;;;;;;4999014;28;20164;-79
2022/07/27 10:37:09;;;;;;;1.02;0.88;;;17.30;99.90;;;;;;4998569;28;20038;-79
2022/07/27 10:39:42;;;;;;;0.55;0.40;;;17.30;99.90;;;;;;4981999;28;20401;-80
2022/07/27 10:42:19;;;;;;;1.17;0.98;;;17.30;99.90;;;;;;5007585;28;20622;-83
2022/07/27 10:45:15;;;;;;;0.45;0.45;;;17.30;99.90;;;;;;5017714;28;20538;-83
2022/07/27 10:47:49;;;;;;;0.30;0.30;;;17.30;99.90;;;;;;5000502;28;20527;-77
2022/07/27 10:50:15;;;;;;;0.85;0.55;;;17.30;99.90;;;;;;5001034;28;20055;-77
2022/07/27 10:52:58;;;;;;;0.52;0.52;;;17.40;99.90;;;;;;5019309;28;20446;-76
2022/07/27 10:55:32;;;;;;;0.35;0.35;;;17.40;99.90;;;;;;5018222;28;20440;-76
2022/07/27 10:58:17;;;;;;;0.47;0.47;;;17.50;99.90;;;;;;5000068;28;20045;-76
2022/07/27 11:00:48;;;;;;;1.33;1.02;;;17.50;99.90;;;;;;4984606;28;20343;-77
2022/07/27 11:03:26;;;;;;;0.70;0.47;;;17.50;99.90;;;;;;4994955;28;20294;-77
2022/07/27 11:06:01;;;;;;;1.25;0.70;;;17.50;99.90;;;;;;5020058;28;20045;-78
2022/07/27 11:08:28;;;;;;;0.28;0.28;;;17.50;99.90;;;;;;5037493;28;20098;-77
2022/07/27 11:10:54;;;;;;;0.50;0.50;;;17.50;99.90;;;;;;5038997;28;20142;-77
2022/07/27 11:13:22;;;;;;;0.75;0.75;;;17.50;99.90;;;;;;5049582;28;20553;-78
2022/07/27 11:16:02;;;;;;;1.00;0.45;;;17.60;99.90;;;;;;5041548;28;20045;-78
2022/07/27 11:18:38;;;;;;;1.08;0.57;;;17.60;99.90;;;;;;5038098;28;20053;-78
2022/07/27 11:21:13;;;;;;;0.60;0.52;;;17.60;99.90;;;;;;5038697;28;20045;-80
2022/07/27 11:23:39;;;;;;;1.08;0.93;;;17.60;99.90;;;;;;5028559;28;20049;-79
2022/07/27 11:26:05;;;;;;;0.68;0.60;;;17.60;99.90;;;;;;5019101;28;20392;-78
2022/07/27 11:28:32;;;;;;;1.85;0.93;;;17.70;99.90;;;;;;5017769;28;20049;-78
2022/07/27 11:30:59;;;;;;;0.63;0.43;;;17.70;99.90;;;;;;5019678;28;20041;-78
2022/07/27 11:33:24;;;;;;;0.60;0.50;;;17.70;99.90;;;;;;5018550;28;20369;-79
2022/07/27 11:36:02;;;;;;;1.38;0.50;;;17.80;99.90;;;;;;5001244;28;20048;-78
2022/07/27 11:38:28;;;;;;;4.57;0.93;;;17.80;99.90;;;;;;5023866;28;20053;-78
2022/07/27 11:40:54;;;;;;;1.38;1.20;;;17.90;99.90;;;;;;5030736;28;20048;-79
2022/07/27 11:43:40;;;;;;;0.38;0.38;;;17.90;99.90;;;;;;5026450;28;20033;-79
2022/07/27 11:46:14;;;;;;;2.47;0.75;;;17.90;99.90;;;;;;5035128;28;20045;-78
2022/07/27 11:48:51;;;;;;;0.73;0.70;;;17.80;99.90;;;;;;5029164;28;20372;-78
2022/07/27 11:51:17;;;;;;;1.48;0.50;;;17.80;99.90;;;;;;5039068;28;20076;-78
2022/07/27 11:53:43;;;;;;;0.57;0.50;;;17.70;99.90;;;;;;5038607;28;20084;-78
2022/07/27 11:56:09;;;;;;;0.50;0.50;;;17.70;99.90;;;;;;5035147;28;20041;-81
2022/07/27 11:59:01;;;;;;;1.00;0.73;;;17.70;99.90;;;;;;5018100;28;20100;-81
2022/07/27 12:01:39;;;;;;;2.63;0.20;;;17.80;99.90;;;;;;5017852;28;20091;-81
2022/07/27 12:04:14;;;;;;;0.10;0.10;;;17.90;99.90;;;;;;5018760;28;20042;-80
2022/07/27 12:06:52;;;;;;;0.30;0.30;;;17.90;99.90;;;;;;5018423;28;20061;-80
2022/07/27 12:09:18;;;;;;;0.40;0.40;;;17.90;99.90;;;;;;5020493;28;20041;-80
2022/07/27 12:11:45;;;;;;;0.75;0.30;;;17.90;99.90;;;;;;5023156;28;20660;-79
2022/07/27 12:14:15;;;;;;;1.92;0.65;;;17.90;99.90;;;;;;5057955;28;20398;-81
2022/07/27 12:16:41;;;;;;;0.98;0.93;;;17.90;99.90;;;;;;5043610;28;20060;-80
2022/07/27 12:19:07;;;;;;;0.40;0.40;;;17.90;99.90;;;;;;5042878;28;20037;-80
2022/07/27 12:21:32;;;;;;;0.30;0.30;;;17.90;99.90;;;;;;5042391;28;20084;-80
2022/07/27 12:23:58;;;;;;;0.50;0.50;;;17.90;99.90;;;;;;5041005;28;20084;-83
2022/07/27 12:26:24;;;;;;;0.77;0.52;;;17.90;99.90;;;;;;5045418;28;20032;-83
2022/07/27 12:29:10;;;;;;;0.35;0.35;;;17.90;99.90;;;;;;5034266;28;20040;-84
2022/07/27 12:31:45;;;;;;;0.82;0.43;;;17.90;99.90;;;;;;5029931;28;20072;-82
2022/07/27 12:34:13;;;;;;;0.75;0.45;;;17.90;99.90;;;;;;5049256;28;20043;-86
2022/07/27 12:36:40;;;;;;;1.33;0.70;;;17.90;99.90;;;;;;5033092;28;20044;-79
2022/07/27 12:39:06;;;;;;;0.75;0.60;;;18.00;99.90;;;;;;5050699;28;20056;-79
2022/07/27 12:41:38;;;;;;;0.55;0.55;;;18.00;99.90;;;;;;5051708;28;20136;-79
2022/07/27 12:44:10;;;;;;;0.73;0.52;;;18.00;99.90;;;;;;5046683;28;20044;-78
2022/07/27 12:46:51;;;;;;;1.13;0.50;;;17.90;99.90;;;;;;5031386;28;20153;-78
2022/07/27 12:49:17;;;;;;;0.40;0.40;;;17.90;99.90;;;;;;5048550;28;20056;-78